Terminal Aerodrome Forecast
Issued by NWS Sioux Falls, SD

Home | Current Version | Previous Version | Text Only | Print | Product List | Glossary On
Versions: 1 2 3 4 5 6 7 8 9 10 11 12 13 14 15 16 17 18
000
FTUS43 KFSD 231124
TAFFSD
TAF
KFSD 231124Z 2312/2412 09004KT P6SM BKN070
     FM231500 13009KT P6SM SCT090
     FM231700 15011KT P6SM SKC
     FM232300 15013G19KT P6SM SCT250
     FM240200 15013KT P6SM SCT060 BKN150
     FM240700 16013G20KT P6SM BKN050=

USA.gov is the U.S. government's official web portal to all federal, state and local government web resources and services.